• Join FlightAware (Why Join?)
  • Login
  • US Flag 
06:23AM EDT


 

Airport Tracker/Info


-or-


 

Live Flight TrackerFlight Track Log ✈ UAL5419 ✈ 03-May-2013 ✈ KLAX - KCRQ

Flight Track Log - Related Links

Times and Time Zones

All times are in EDT time to prevent confusion due to time zone crossing. See the UAL5419 flight status page for this flight to view local times or setup timezone preferences in your user account.

Time Position Orientation Groundspeed Altitude Reporting Facility
EDT Latitude Longitude Course Direction KTS MPH feet Rate Location/Type
12:22AM 33.9000 -118.4667 129° Southeast 210 242 2,400  Level Southern California TRACON
12:23AM 33.8533 -118.4875 200° South 210 242 3,600 1,200 Climbing Los Angeles Center
12:24AM 33.7931 -118.4775 172° South 213 245 5,000 1,260 Climbing Los Angeles Center
12:25AM 33.7417 -118.4492 155° Southeast 213 245 6,200 1,200 Climbing Los Angeles Center
12:26AM 33.6953 -118.4081 144° Southeast 212 244 7,500 1,320 Climbing Los Angeles Center
12:27AM 33.7010 -118.0857 129° Southeast  Level FlightAware Approximate
12:27AM 33.6592 -118.3367 121° Southeast 213 245 8,900  Level Los Angeles Center
12:28AM 33.6242 -118.2731 123° Southeast 221 254 9,000  Climbing Los Angeles Center
12:29AM 33.5867 -118.2056 124° Southeast 235 270 9,000  Level Los Angeles Center
12:30AM 33.5536 -118.1344 119° Southeast 243 280 9,000  Level Los Angeles Center
12:31AM 33.5228 -118.0603 116° Southeast 248 285 9,000 -300 Level Los Angeles Center
12:32AM 33.4917 -117.9869 117° Southeast 248 285 8,500 -660 Descending Los Angeles Center
12:33AM 33.4575 -117.9081 117° Southeast 256 295 7,700 -960 Descending Los Angeles Center
12:34AM 33.4333 -117.8333 111° Southeast 274 315 7,000 -1,020 Descending Southern California TRACON
12:35AM 33.4000 -117.7667 121° Southeast 276 318 6,100 -900 Descending Southern California TRACON
12:36AM 33.3500 -117.6833 126° Southeast 277 319 5,200 -780 Descending Southern California TRACON
12:36AM 33.3425 -117.6489 105° East 276 318 5,000 -240 Descending Los Angeles Center
12:36AM 33.3333 -117.6167 109° East 265 305 5,000 -120 Level Southern California TRACON
12:38AM 33.2833 -117.5333 126° Southeast 249 287 4,900 -480 Descending Southern California TRACON
12:39AM 33.2500 -117.4500 116° Southeast 267 307 4,000 -480 Descending Southern California TRACON
12:40AM 33.2333 -117.3667 103° East 250 288 4,000 -540 Level Southern California TRACON
12:41AM 33.2000 -117.3000 121° Southeast 208 239 3,000 -960 Descending Southern California TRACON
12:42AM 33.1833 -117.2500 112° Southeast 168 193 2,100 -840 Descending Southern California TRACON
12:43AM 33.1500 -117.2333 157° South 138 159 1,400 -780 Descending Southern California TRACON
12:44AM 33.1333 -117.2500 220° Southwest 124 143 600 -840 Descending Southern California TRACON